sensor_id;sensor_type;location;lat;lon;timestamp;temperature;humidity
6824;DHT22;58633;49.470;11.004;2023-07-29T00:06:09;19.00;99.90
6824;DHT22;58633;49.470;11.004;2023-07-29T00:08:35;19.20;99.90
6824;DHT22;58633;49.470;11.004;2023-07-29T00:11:00;19.10;99.90
6824;DHT22;58633;49.470;11.004;2023-07-29T00:15:54;19.00;99.90
6824;DHT22;58633;49.470;11.004;2023-07-29T00:23:12;19.10;99.90
6824;DHT22;58633;49.470;11.004;2023-07-29T00:35:22;19.00;99.90
6824;DHT22;58633;49.470;11.004;2023-07-29T00:40:20;19.10;99.90
6824;DHT22;58633;49.470;11.004;2023-07-29T00:45:13;19.10;99.90
6824;DHT22;58633;49.470;11.004;2023-07-29T00:50:06;19.00;99.90
6824;DHT22;58633;49.470;11.004;2023-07-29T00:52:32;18.90;99.90
6824;DHT22;58633;49.470;11.004;2023-07-29T00:57:24;18.80;99.90
6824;DHT22;58633;49.470;11.004;2023-07-29T01:04:43;18.90;99.90
6824;DHT22;58633;49.470;11.004;2023-07-29T01:07:17;18.80;99.90
6824;DHT22;58633;49.470;11.004;2023-07-29T01:12:36;18.70;99.90
6824;DHT22;58633;49.470;11.004;2023-07-29T01:15:15;18.70;99.90
6824;DHT22;58633;49.470;11.004;2023-07-29T01:18:04;18.50;99.90
6824;DHT22;58633;49.470;11.004;2023-07-29T01:20:33;18.60;99.90
6824;DHT22;58633;49.470;11.004;2023-07-29T01:23:02;18.60;99.90
6824;DHT22;58633;49.470;11.004;2023-07-29T01:25:28;18.70;99.90
6824;DHT22;58633;49.470;11.004;2023-07-29T01:27:53;18.30;99.90
6824;DHT22;58633;49.470;11.004;2023-07-29T01:30:23;19.30;99.90
6824;DHT22;58633;49.470;11.004;2023-07-29T01:33:10;18.60;99.90
6824;DHT22;58633;49.470;11.004;2023-07-29T01:35:46;18.50;99.90
6824;DHT22;58633;49.470;11.004;2023-07-29T01:38:33;18.70;99.90
6824;DHT22;58633;49.470;11.004;2023-07-29T01:41:01;18.40;99.90
6824;DHT22;58633;49.470;11.004;2023-07-29T01:43:28;18.50;99.90
6824;DHT22;58633;49.470;11.004;2023-07-29T01:45:54;18.50;99.90
6824;DHT22;58633;49.470;11.004;2023-07-29T01:48:19;18.50;99.90
6824;DHT22;58633;49.470;11.004;2023-07-29T01:50:45;18.50;99.90
6824;DHT22;58633;49.470;11.004;2023-07-29T01:53:10;18.50;99.90
6824;DHT22;58633;49.470;11.004;2023-07-29T01:55:36;18.60;99.90
6824;DHT22;58633;49.470;11.004;2023-07-29T02:02:53;18.50;99.90
6824;DHT22;58633;49.470;11.004;2023-07-29T02:07:45;18.40;99.90
6824;DHT22;58633;49.470;11.004;2023-07-29T02:15:03;18.30;99.90
6824;DHT22;58633;49.470;11.004;2023-07-29T02:17:30;18.30;99.90
6824;DHT22;58633;49.470;11.004;2023-07-29T02:22:22;18.30;99.90
6824;DHT22;58633;49.470;11.004;2023-07-29T02:24:48;18.20;99.90
6824;DHT22;58633;49.470;11.004;2023-07-29T02:29:39;18.30;99.90
6824;DHT22;58633;49.470;11.004;2023-07-29T02:32:05;18.30;99.90
6824;DHT22;58633;49.470;11.004;2023-07-29T02:36:56;18.30;99.90
6824;DHT22;58633;49.470;11.004;2023-07-29T02:39:22;18.40;99.90
6824;DHT22;58633;49.470;11.004;2023-07-29T02:44:15;18.30;99.90
6824;DHT22;58633;49.470;11.004;2023-07-29T02:46:41;18.00;99.90
6824;DHT22;58633;49.470;11.004;2023-07-29T02:49:06;18.20;99.90
6824;DHT22;58633;49.470;11.004;2023-07-29T02:58:50;18.10;99.90
6824;DHT22;58633;49.470;11.004;2023-07-29T03:01:16;18.30;99.90
6824;DHT22;58633;49.470;11.004;2023-07-29T03:03:42;18.30;99.90
6824;DHT22;58633;49.470;11.004;2023-07-29T03:06:09;18.10;99.90
6824;DHT22;58633;49.470;11.004;2023-07-29T03:08:35;18.20;99.90
6824;DHT22;58633;49.470;11.004;2023-07-29T03:11:12;18.20;99.90
6824;DHT22;58633;49.470;11.004;2023-07-29T03:13:38;18.10;99.90
6824;DHT22;58633;49.470;11.004;2023-07-29T03:16:16;18.20;99.90
6824;DHT22;58633;49.470;11.004;2023-07-29T03:18:44;18.20;99.90
6824;DHT22;58633;49.470;11.004;2023-07-29T03:26:03;18.10;99.90
6824;DHT22;58633;49.470;11.004;2023-07-29T03:28:36;18.10;99.90
6824;DHT22;58633;49.470;11.004;2023-07-29T03:31:02;18.10;99.90
6824;DHT22;58633;49.470;11.004;2023-07-29T03:33:28;18.10;99.90
6824;DHT22;58633;49.470;11.004;2023-07-29T03:35:53;18.10;99.90
6824;DHT22;58633;49.470;11.004;2023-07-29T04:00:14;18.10;99.90
6824;DHT22;58633;49.470;11.004;2023-07-29T04:02:42;18.30;99.90
6824;DHT22;58633;49.470;11.004;2023-07-29T04:07:37;18.30;99.90
6824;DHT22;58633;49.470;11.004;2023-07-29T04:10:04;18.30;99.90
6824;DHT22;58633;49.470;11.004;2023-07-29T04:22:15;18.30;99.90
6824;DHT22;58633;49.470;11.004;2023-07-29T04:44:10;18.50;99.90
6824;DHT22;58633;49.470;11.004;2023-07-29T04:51:28;18.70;99.90
6824;DHT22;58633;49.470;11.004;2023-07-29T04:56:20;18.60;99.90
6824;DHT22;58633;49.470;11.004;2023-07-29T04:58:45;18.70;99.90
6824;DHT22;58633;49.470;11.004;2023-07-29T05:15:49;18.80;99.90
6824;DHT22;58633;49.470;11.004;2023-07-29T05:23:08;18.90;99.90
6824;DHT22;58633;49.470;11.004;2023-07-29T05:28:03;19.00;99.90
6824;DHT22;58633;49.470;11.004;2023-07-29T05:32:57;19.10;99.90
6824;DHT22;58633;49.470;11.004;2023-07-29T05:45:07;19.20;99.90
6824;DHT22;58633;49.470;11.004;2023-07-29T05:47:33;19.10;99.90
6824;DHT22;58633;49.470;11.004;2023-07-29T05:54:54;19.20;99.90
6824;DHT22;58633;49.470;11.004;2023-07-29T05:57:19;19.20;99.90
6824;DHT22;58633;49.470;11.004;2023-07-29T06:07:03;19.30;99.90
6824;DHT22;58633;49.470;11.004;2023-07-29T06:28:56;19.20;99.90
6824;DHT22;58633;49.470;11.004;2023-07-29T06:31:22;19.20;99.90
6824;DHT22;58633;49.470;11.004;2023-07-29T06:33:47;19.20;99.90
6824;DHT22;58633;49.470;11.004;2023-07-29T06:38:39;19.20;99.90
6824;DHT22;58633;49.470;11.004;2023-07-29T06:50:50;18.40;99.90
6824;DHT22;58633;49.470;11.004;2023-07-29T06:58:08;18.30;99.90
6824;DHT22;58633;49.470;11.004;2023-07-29T07:07:51;18.30;99.90
6824;DHT22;58633;49.470;11.004;2023-07-29T07:10:18;18.20;99.90
6824;DHT22;58633;49.470;11.004;2023-07-29T07:20:02;18.30;99.90
6824;DHT22;58633;49.470;11.004;2023-07-29T07:39:31;18.50;99.90
6824;DHT22;58633;49.470;11.004;2023-07-29T07:51:44;18.90;99.90
6824;DHT22;58633;49.470;11.004;2023-07-29T07:54:09;18.70;99.90
6824;DHT22;58633;49.470;11.004;2023-07-29T08:03:52;18.60;99.90
6824;DHT22;58633;49.470;11.004;2023-07-29T08:06:18;18.50;99.90
6824;DHT22;58633;49.470;11.004;2023-07-29T08:08:43;18.50;99.90
6824;DHT22;58633;49.470;11.004;2023-07-29T08:13:35;18.50;99.90
6824;DHT22;58633;49.470;11.004;2023-07-29T08:20:57;18.10;99.90
6824;DHT22;58633;49.470;11.004;2023-07-29T08:23:24;18.30;99.90
6824;DHT22;58633;49.470;11.004;2023-07-29T08:25:58;18.30;99.90
6824;DHT22;58633;49.470;11.004;2023-07-29T08:28:35;18.30;99.90
6824;DHT22;58633;49.470;11.004;2023-07-29T08:31:01;18.30;99.90
6824;DHT22;58633;49.470;11.004;2023-07-29T08:33:27;18.30;99.90
6824;DHT22;58633;49.470;11.004;2023-07-29T08:35:53;18.30;99.90
6824;DHT22;58633;49.470;11.004;2023-07-29T08:41:04;18.30;99.90
6824;DHT22;58633;49.470;11.004;2023-07-29T08:43:32;18.40;99.90
6824;DHT22;58633;49.470;11.004;2023-07-29T08:45:58;18.40;99.90
6824;DHT22;58633;49.470;11.004;2023-07-29T08:48:39;18.40;99.90
6824;DHT22;58633;49.470;11.004;2023-07-29T08:51:10;18.20;99.90
6824;DHT22;58633;49.470;11.004;2023-07-29T08:56:03;18.30;99.90
6824;DHT22;58633;49.470;11.004;2023-07-29T09:05:48;18.20;99.90
6824;DHT22;58633;49.470;11.004;2023-07-29T09:08:14;18.20;99.90
6824;DHT22;58633;49.470;11.004;2023-07-29T09:10:40;18.30;99.90
6824;DHT22;58633;49.470;11.004;2023-07-29T09:13:06;18.30;99.90
6824;DHT22;58633;49.470;11.004;2023-07-29T09:15:34;18.40;99.90
6824;DHT22;58633;49.470;11.004;2023-07-29T09:18:22;18.50;99.90
6824;DHT22;58633;49.470;11.004;2023-07-29T09:20:49;18.50;99.90
6824;DHT22;58633;49.470;11.004;2023-07-29T09:23:14;18.50;99.90
6824;DHT22;58633;49.470;11.004;2023-07-29T09:25:40;18.50;99.90
6824;DHT22;58633;49.470;11.004;2023-07-29T09:28:11;18.50;99.90
6824;DHT22;58633;49.470;11.004;2023-07-29T09:30:41;18.60;99.90
6824;DHT22;58633;49.470;11.004;2023-07-29T09:33:08;18.60;99.90
6824;DHT22;58633;49.470;11.004;2023-07-29T09:35:35;18.60;99.90
6824;DHT22;58633;49.470;11.004;2023-07-29T09:38:05;18.60;99.90
6824;DHT22;58633;49.470;11.004;2023-07-29T09:40:38;18.60;99.90
6824;DHT22;58633;49.470;11.004;2023-07-29T09:43:05;18.70;99.90
6824;DHT22;58633;49.470;11.004;2023-07-29T09:45:33;18.80;99.90
6824;DHT22;58633;49.470;11.004;2023-07-29T09:47:59;18.80;99.90
6824;DHT22;58633;49.470;11.004;2023-07-29T09:50:25;19.00;99.90
6824;DHT22;58633;49.470;11.004;2023-07-29T09:52:53;19.40;99.90
6824;DHT22;58633;49.470;11.004;2023-07-29T09:55:20;19.10;99.90
6824;DHT22;58633;49.470;11.004;2023-07-29T09:57:46;19.10;99.90
6824;DHT22;58633;49.470;11.004;2023-07-29T10:00:12;19.30;99.90
6824;DHT22;58633;49.470;11.004;2023-07-29T10:02:40;19.30;99.90
6824;DHT22;58633;49.470;11.004;2023-07-29T10:07:36;19.50;99.90
6824;DHT22;58633;49.470;11.004;2023-07-29T10:10:04;19.60;99.90
6824;DHT22;58633;49.470;11.004;2023-07-29T10:12:31;19.60;99.90
6824;DHT22;58633;49.470;11.004;2023-07-29T10:15:02;19.80;99.90
6824;DHT22;58633;49.470;11.004;2023-07-29T10:17:28;20.00;99.90
6824;DHT22;58633;49.470;11.004;2023-07-29T10:19:56;20.20;99.90
6824;DHT22;58633;49.470;11.004;2023-07-29T10:22:25;20.20;99.90
6824;DHT22;58633;49.470;11.004;2023-07-29T10:24:54;20.30;99.90
6824;DHT22;58633;49.470;11.004;2023-07-29T10:27:24;20.20;99.90
6824;DHT22;58633;49.470;11.004;2023-07-29T10:29:50;20.10;99.90
6824;DHT22;58633;49.470;11.004;2023-07-29T10:32:19;20.20;99.90
6824;DHT22;58633;49.470;11.004;2023-07-29T10:34:47;20.40;99.90
6824;DHT22;58633;49.470;11.004;2023-07-29T10:37:13;20.30;99.90
6824;DHT22;58633;49.470;11.004;2023-07-29T10:39:40;20.10;99.90
6824;DHT22;58633;49.470;11.004;2023-07-29T10:42:06;20.20;99.90
6824;DHT22;58633;49.470;11.004;2023-07-29T10:47:27;20.40;99.90
6824;DHT22;58633;49.470;11.004;2023-07-29T10:49:54;20.40;99.90
6824;DHT22;58633;49.470;11.004;2023-07-29T10:54:56;20.60;99.90
6824;DHT22;58633;49.470;11.004;2023-07-29T10:59:58;20.40;99.90
6824;DHT22;58633;49.470;11.004;2023-07-29T11:02:36;21.20;99.90
6824;DHT22;58633;49.470;11.004;2023-07-29T11:05:06;21.30;99.90
6824;DHT22;58633;49.470;11.004;2023-07-29T11:07:46;21.30;99.90
6824;DHT22;58633;49.470;11.004;2023-07-29T11:10:13;21.20;99.90
6824;DHT22;58633;49.470;11.004;2023-07-29T11:12:46;21.20;99.90
6824;DHT22;58633;49.470;11.004;2023-07-29T11:17:52;21.40;99.90
6824;DHT22;58633;49.470;11.004;2023-07-29T11:20:20;21.00;99.90
6824;DHT22;58633;49.470;11.004;2023-07-29T11:22:47;21.20;99.90
6824;DHT22;58633;49.470;11.004;2023-07-29T11:25:15;21.20;99.90
6824;DHT22;58633;49.470;11.004;2023-07-29T11:27:41;21.10;99.90
6824;DHT22;58633;49.470;11.004;2023-07-29T11:30:09;21.30;99.90
6824;DHT22;58633;49.470;11.004;2023-07-29T11:32:37;21.30;99.90
6824;DHT22;58633;49.470;11.004;2023-07-29T11:35:04;21.30;99.90
6824;DHT22;58633;49.470;11.004;2023-07-29T11:37:30;21.40;99.90
6824;DHT22;58633;49.470;11.004;2023-07-29T11:42:21;21.40;99.90
6824;DHT22;58633;49.470;11.004;2023-07-29T11:44:47;21.60;99.90
6824;DHT22;58633;49.470;11.004;2023-07-29T11:47:13;21.70;99.90
6824;DHT22;58633;49.470;11.004;2023-07-29T11:49:40;21.70;99.90
6824;DHT22;58633;49.470;11.004;2023-07-29T11:52:07;21.80;99.90
6824;DHT22;58633;49.470;11.004;2023-07-29T11:54:35;22.00;99.90
6824;DHT22;58633;49.470;11.004;2023-07-29T11:57:01;22.20;99.90
6824;DHT22;58633;49.470;11.004;2023-07-29T11:59:28;22.30;99.90
6824;DHT22;58633;49.470;11.004;2023-07-29T12:01:54;22.30;99.90
6824;DHT22;58633;49.470;11.004;2023-07-29T12:04:20;22.40;99.90
6824;DHT22;58633;49.470;11.004;2023-07-29T12:06:46;22.30;95.70
6824;DHT22;58633;49.470;11.004;2023-07-29T12:09:12;22.30;96.00
6824;DHT22;58633;49.470;11.004;2023-07-29T12:11:39;22.70;96.00
6824;DHT22;58633;49.470;11.004;2023-07-29T12:14:07;22.70;91.50
6824;DHT22;58633;49.470;11.004;2023-07-29T12:16:40;22.90;91.60
6824;DHT22;58633;49.470;11.004;2023-07-29T12:21:32;23.40;85.20
6824;DHT22;58633;49.470;11.004;2023-07-29T12:23:58;23.60;81.30
6824;DHT22;58633;49.470;11.004;2023-07-29T12:26:28;23.70;81.00
6824;DHT22;58633;49.470;11.004;2023-07-29T12:28:53;24.00;80.60
6824;DHT22;58633;49.470;11.004;2023-07-29T12:31:19;24.10;78.20
6824;DHT22;58633;49.470;11.004;2023-07-29T12:33:44;24.50;77.10
6824;DHT22;58633;49.470;11.004;2023-07-29T12:38:36;24.50;74.70
6824;DHT22;58633;49.470;11.004;2023-07-29T12:41:01;24.50;74.20
6824;DHT22;58633;49.470;11.004;2023-07-29T12:43:28;24.40;73.50
6824;DHT22;58633;49.470;11.004;2023-07-29T12:45:54;24.40;72.90
6824;DHT22;58633;49.470;11.004;2023-07-29T12:48:19;24.40;73.10
6824;DHT22;58633;49.470;11.004;2023-07-29T12:50:45;25.00;72.90
6824;DHT22;58633;49.470;11.004;2023-07-29T12:53:11;25.50;72.40
6824;DHT22;58633;49.470;11.004;2023-07-29T12:58:03;26.00;69.40
6824;DHT22;58633;49.470;11.004;2023-07-29T13:00:29;25.80;66.70
6824;DHT22;58633;49.470;11.004;2023-07-29T13:02:54;25.60;67.60
6824;DHT22;58633;49.470;11.004;2023-07-29T13:05:20;25.60;67.50
6824;DHT22;58633;49.470;11.004;2023-07-29T13:07:46;25.80;67.80
6824;DHT22;58633;49.470;11.004;2023-07-29T13:10:13;26.10;66.80
6824;DHT22;58633;49.470;11.004;2023-07-29T13:12:39;26.40;66.70
6824;DHT22;58633;49.470;11.004;2023-07-29T13:15:06;26.70;66.30
6824;DHT22;58633;49.470;11.004;2023-07-29T13:17:32;26.80;65.90
6824;DHT22;58633;49.470;11.004;2023-07-29T13:19:57;26.90;64.30
6824;DHT22;58633;49.470;11.004;2023-07-29T13:22:23;26.40;63.50
6824;DHT22;58633;49.470;11.004;2023-07-29T13:24:48;26.10;64.20
6824;DHT22;58633;49.470;11.004;2023-07-29T13:27:14;26.10;64.70
6824;DHT22;58633;49.470;11.004;2023-07-29T13:29:40;26.50;63.00
6824;DHT22;58633;49.470;11.004;2023-07-29T13:32:06;26.90;61.70
6824;DHT22;58633;49.470;11.004;2023-07-29T13:34:31;27.40;59.20
6824;DHT22;58633;49.470;11.004;2023-07-29T13:36:57;27.70;59.80
6824;DHT22;58633;49.470;11.004;2023-07-29T13:39:23;27.70;60.00
6824;DHT22;58633;49.470;11.004;2023-07-29T13:41:48;28.10;58.70
6824;DHT22;58633;49.470;11.004;2023-07-29T13:44:14;28.00;57.60
6824;DHT22;58633;49.470;11.004;2023-07-29T13:49:05;27.70;57.20
6824;DHT22;58633;49.470;11.004;2023-07-29T13:51:31;27.60;57.50
6824;DHT22;58633;49.470;11.004;2023-07-29T13:53:56;27.90;58.50
6824;DHT22;58633;49.470;11.004;2023-07-29T13:56:22;28.00;58.50
6824;DHT22;58633;49.470;11.004;2023-07-29T13:58:48;27.80;57.20
6824;DHT22;58633;49.470;11.004;2023-07-29T14:01:14;27.60;58.10
6824;DHT22;58633;49.470;11.004;2023-07-29T14:03:39;27.30;58.50
6824;DHT22;58633;49.470;11.004;2023-07-29T14:06:05;27.20;58.90
6824;DHT22;58633;49.470;11.004;2023-07-29T14:08:30;27.40;59.20
6824;DHT22;58633;49.470;11.004;2023-07-29T14:10:56;27.60;58.50
6824;DHT22;58633;49.470;11.004;2023-07-29T14:13:21;28.10;56.90
6824;DHT22;58633;49.470;11.004;2023-07-29T14:15:47;28.10;55.70
6824;DHT22;58633;49.470;11.004;2023-07-29T14:18:12;28.30;55.20
6824;DHT22;58633;49.470;11.004;2023-07-29T14:20:38;28.20;55.70
6824;DHT22;58633;49.470;11.004;2023-07-29T14:23:04;28.10;55.40
6824;DHT22;58633;49.470;11.004;2023-07-29T14:25:29;28.10;56.20
6824;DHT22;58633;49.470;11.004;2023-07-29T14:27:55;28.00;56.60
6824;DHT22;58633;49.470;11.004;2023-07-29T14:30:20;28.10;56.60
6824;DHT22;58633;49.470;11.004;2023-07-29T14:32:46;28.00;56.00
6824;DHT22;58633;49.470;11.004;2023-07-29T14:35:12;27.90;56.00
6824;DHT22;58633;49.470;11.004;2023-07-29T14:37:37;27.80;56.50
6824;DHT22;58633;49.470;11.004;2023-07-29T14:40:04;27.80;56.60
6824;DHT22;58633;49.470;11.004;2023-07-29T14:42:30;27.30;56.20
6824;DHT22;58633;49.470;11.004;2023-07-29T14:44:55;27.50;56.40
6824;DHT22;58633;49.470;11.004;2023-07-29T14:47:21;27.70;55.70
6824;DHT22;58633;49.470;11.004;2023-07-29T14:49:46;27.70;56.10
6824;DHT22;58633;49.470;11.004;2023-07-29T14:52:12;27.90;55.40
6824;DHT22;58633;49.470;11.004;2023-07-29T14:54:38;27.70;55.50
6824;DHT22;58633;49.470;11.004;2023-07-29T14:57:05;27.90;55.70
6824;DHT22;58633;49.470;11.004;2023-07-29T14:59:31;28.00;54.10
6824;DHT22;58633;49.470;11.004;2023-07-29T15:01:57;27.80;54.50
6824;DHT22;58633;49.470;11.004;2023-07-29T15:04:22;27.70;54.40
6824;DHT22;58633;49.470;11.004;2023-07-29T15:06:48;27.70;54.60
6824;DHT22;58633;49.470;11.004;2023-07-29T15:09:13;28.10;54.70
6824;DHT22;58633;49.470;11.004;2023-07-29T15:11:39;28.20;53.80
6824;DHT22;58633;49.470;11.004;2023-07-29T15:14:05;28.20;52.70
6824;DHT22;58633;49.470;11.004;2023-07-29T15:16:31;28.30;52.70
6824;DHT22;58633;49.470;11.004;2023-07-29T15:18:59;28.10;52.90
6824;DHT22;58633;49.470;11.004;2023-07-29T15:21:24;28.10;53.20
6824;DHT22;58633;49.470;11.004;2023-07-29T15:23:50;28.10;53.70
6824;DHT22;58633;49.470;11.004;2023-07-29T15:26:16;28.20;51.30
6824;DHT22;58633;49.470;11.004;2023-07-29T15:28:41;28.20;51.80
6824;DHT22;58633;49.470;11.004;2023-07-29T15:31:07;28.30;51.60
6824;DHT22;58633;49.470;11.004;2023-07-29T15:33:32;28.60;52.10
6824;DHT22;58633;49.470;11.004;2023-07-29T15:36:00;28.50;51.50
6824;DHT22;58633;49.470;11.004;2023-07-29T15:38:25;28.40;50.60
6824;DHT22;58633;49.470;11.004;2023-07-29T15:40:51;28.60;50.30
6824;DHT22;58633;49.470;11.004;2023-07-29T15:43:17;28.50;49.50
6824;DHT22;58633;49.470;11.004;2023-07-29T15:45:43;28.40;48.10
6824;DHT22;58633;49.470;11.004;2023-07-29T15:48:09;28.30;48.50
6824;DHT22;58633;49.470;11.004;2023-07-29T15:50:35;28.40;49.50
6824;DHT22;58633;49.470;11.004;2023-07-29T15:53:00;28.50;48.90
6824;DHT22;58633;49.470;11.004;2023-07-29T15:55:28;28.80;49.00
6824;DHT22;58633;49.470;11.004;2023-07-29T15:57:54;28.70;48.50
6824;DHT22;58633;49.470;11.004;2023-07-29T16:00:19;28.60;48.40
6824;DHT22;58633;49.470;11.004;2023-07-29T16:02:47;28.40;48.60
6824;DHT22;58633;49.470;11.004;2023-07-29T16:05:13;28.30;49.10
6824;DHT22;58633;49.470;11.004;2023-07-29T16:07:38;28.20;49.40
6824;DHT22;58633;49.470;11.004;2023-07-29T16:10:04;28.20;49.90
6824;DHT22;58633;49.470;11.004;2023-07-29T16:12:30;28.40;49.40
6824;DHT22;58633;49.470;11.004;2023-07-29T16:14:58;28.40;50.10
6824;DHT22;58633;49.470;11.004;2023-07-29T16:17:24;28.50;50.40
6824;DHT22;58633;49.470;11.004;2023-07-29T16:20:01;28.50;51.10
6824;DHT22;58633;49.470;11.004;2023-07-29T16:22:27;28.30;50.80
6824;DHT22;58633;49.470;11.004;2023-07-29T16:24:53;28.00;50.20
6824;DHT22;58633;49.470;11.004;2023-07-29T16:27:19;27.80;50.40
6824;DHT22;58633;49.470;11.004;2023-07-29T16:29:45;27.50;50.30
6824;DHT22;58633;49.470;11.004;2023-07-29T16:32:11;27.40;51.70
6824;DHT22;58633;49.470;11.004;2023-07-29T16:34:38;27.50;51.00
6824;DHT22;58633;49.470;11.004;2023-07-29T16:37:05;27.50;51.60
6824;DHT22;58633;49.470;11.004;2023-07-29T16:39:31;27.50;51.10
6824;DHT22;58633;49.470;11.004;2023-07-29T16:41:57;27.50;51.80
6824;DHT22;58633;49.470;11.004;2023-07-29T16:44:22;27.40;51.90
6824;DHT22;58633;49.470;11.004;2023-07-29T16:51:39;27.60;51.90
6824;DHT22;58633;49.470;11.004;2023-07-29T16:54:05;27.50;51.30
6824;DHT22;58633;49.470;11.004;2023-07-29T16:56:30;27.60;51.70
6824;DHT22;58633;49.470;11.004;2023-07-29T16:58:58;27.70;51.60
6824;DHT22;58633;49.470;11.004;2023-07-29T17:01:23;27.80;51.00
6824;DHT22;58633;49.470;11.004;2023-07-29T17:03:49;27.70;51.10
6824;DHT22;58633;49.470;11.004;2023-07-29T17:06:14;27.50;52.00
6824;DHT22;58633;49.470;11.004;2023-07-29T17:08:40;27.40;51.80
6824;DHT22;58633;49.470;11.004;2023-07-29T17:11:06;27.10;51.50
6824;DHT22;58633;49.470;11.004;2023-07-29T17:13:31;26.90;52.00
6824;DHT22;58633;49.470;11.004;2023-07-29T17:15:57;27.00;52.70
6824;DHT22;58633;49.470;11.004;2023-07-29T17:18:22;26.80;53.00
6824;DHT22;58633;49.470;11.004;2023-07-29T17:20:48;26.90;54.20
6824;DHT22;58633;49.470;11.004;2023-07-29T17:23:13;26.90;54.00
6824;DHT22;58633;49.470;11.004;2023-07-29T17:25:39;26.60;54.50
6824;DHT22;58633;49.470;11.004;2023-07-29T17:28:04;26.50;54.10
6824;DHT22;58633;49.470;11.004;2023-07-29T17:30:32;26.70;54.80
6824;DHT22;58633;49.470;11.004;2023-07-29T17:33:03;26.10;55.10
6824;DHT22;58633;49.470;11.004;2023-07-29T17:35:29;26.20;55.70
6824;DHT22;58633;49.470;11.004;2023-07-29T17:37:55;26.40;55.50
6824;DHT22;58633;49.470;11.004;2023-07-29T17:40:20;26.40;56.00
6824;DHT22;58633;49.470;11.004;2023-07-29T17:42:46;25.90;55.60
6824;DHT22;58633;49.470;11.004;2023-07-29T17:45:11;26.00;55.50
6824;DHT22;58633;49.470;11.004;2023-07-29T17:47:37;25.80;55.90
6824;DHT22;58633;49.470;11.004;2023-07-29T17:50:03;25.70;56.30
6824;DHT22;58633;49.470;11.004;2023-07-29T17:54:54;25.40;57.20
6824;DHT22;58633;49.470;11.004;2023-07-29T17:59:46;25.50;57.40
6824;DHT22;58633;49.470;11.004;2023-07-29T18:02:12;25.30;57.50
6824;DHT22;58633;49.470;11.004;2023-07-29T18:04:37;25.20;57.60
6824;DHT22;58633;49.470;11.004;2023-07-29T18:07:03;25.20;58.00
6824;DHT22;58633;49.470;11.004;2023-07-29T18:09:29;25.10;58.20
6824;DHT22;58633;49.470;11.004;2023-07-29T18:11:55;25.00;58.20
6824;DHT22;58633;49.470;11.004;2023-07-29T18:14:21;25.10;58.80
6824;DHT22;58633;49.470;11.004;2023-07-29T18:16:47;25.00;59.00
6824;DHT22;58633;49.470;11.004;2023-07-29T18:19:12;24.90;59.10
6824;DHT22;58633;49.470;11.004;2023-07-29T18:21:38;24.90;59.30
6824;DHT22;58633;49.470;11.004;2023-07-29T18:24:04;24.80;59.60
6824;DHT22;58633;49.470;11.004;2023-07-29T18:26:30;24.80;60.40
6824;DHT22;58633;49.470;11.004;2023-07-29T18:28:55;24.70;60.10
6824;DHT22;58633;49.470;11.004;2023-07-29T18:31:20;24.50;60.00
6824;DHT22;58633;49.470;11.004;2023-07-29T18:33:47;24.60;60.00
6824;DHT22;58633;49.470;11.004;2023-07-29T18:36:12;24.50;60.20
6824;DHT22;58633;49.470;11.004;2023-07-29T18:38:38;24.40;60.70
6824;DHT22;58633;49.470;11.004;2023-07-29T18:41:03;24.50;60.80
6824;DHT22;58633;49.470;11.004;2023-07-29T18:45:55;24.30;61.10
6824;DHT22;58633;49.470;11.004;2023-07-29T18:48:22;24.30;60.90
6824;DHT22;58633;49.470;11.004;2023-07-29T18:50:48;24.10;61.40
6824;DHT22;58633;49.470;11.004;2023-07-29T18:53:14;24.10;61.40
6824;DHT22;58633;49.470;11.004;2023-07-29T18:55:39;24.10;61.50
6824;DHT22;58633;49.470;11.004;2023-07-29T18:58:05;24.10;61.60
6824;DHT22;58633;49.470;11.004;2023-07-29T19:02:58;23.80;61.60
6824;DHT22;58633;49.470;11.004;2023-07-29T19:05:24;23.90;62.50
6824;DHT22;58633;49.470;11.004;2023-07-29T19:07:49;23.90;62.50
6824;DHT22;58633;49.470;11.004;2023-07-29T19:10:15;23.50;62.60
6824;DHT22;58633;49.470;11.004;2023-07-29T19:12:40;23.70;62.80
6824;DHT22;58633;49.470;11.004;2023-07-29T19:15:08;23.70;63.00
6824;DHT22;58633;49.470;11.004;2023-07-29T19:17:34;23.80;63.20
6824;DHT22;58633;49.470;11.004;2023-07-29T19:20:01;23.70;62.90
6824;DHT22;58633;49.470;11.004;2023-07-29T19:22:26;23.70;62.90
6824;DHT22;58633;49.470;11.004;2023-07-29T19:24:52;23.50;62.90
6824;DHT22;58633;49.470;11.004;2023-07-29T19:27:17;23.60;62.90
6824;DHT22;58633;49.470;11.004;2023-07-29T19:29:43;23.60;63.10
6824;DHT22;58633;49.470;11.004;2023-07-29T19:32:09;23.60;63.10
6824;DHT22;58633;49.470;11.004;2023-07-29T19:34:35;23.50;63.10
6824;DHT22;58633;49.470;11.004;2023-07-29T19:39:26;23.50;63.10
6824;DHT22;58633;49.470;11.004;2023-07-29T19:41:52;23.40;63.10
6824;DHT22;58633;49.470;11.004;2023-07-29T19:44:17;23.50;63.20
6824;DHT22;58633;49.470;11.004;2023-07-29T19:46:43;23.30;63.30
6824;DHT22;58633;49.470;11.004;2023-07-29T19:49:08;23.30;63.40
6824;DHT22;58633;49.470;11.004;2023-07-29T19:51:34;23.40;63.70
6824;DHT22;58633;49.470;11.004;2023-07-29T19:54:00;23.30;63.80
6824;DHT22;58633;49.470;11.004;2023-07-29T19:58:51;23.00;63.90
6824;DHT22;58633;49.470;11.004;2023-07-29T20:01:17;23.00;64.30
6824;DHT22;58633;49.470;11.004;2023-07-29T20:03:42;23.10;64.20
6824;DHT22;58633;49.470;11.004;2023-07-29T20:06:08;23.10;64.40
6824;DHT22;58633;49.470;11.004;2023-07-29T20:08:34;23.00;64.20
6824;DHT22;58633;49.470;11.004;2023-07-29T20:10:59;23.10;64.40
6824;DHT22;58633;49.470;11.004;2023-07-29T20:13:25;23.00;64.50
6824;DHT22;58633;49.470;11.004;2023-07-29T20:15:52;23.00;64.60
6824;DHT22;58633;49.470;11.004;2023-07-29T20:18:18;23.00;64.70
6824;DHT22;58633;49.470;11.004;2023-07-29T20:20:43;22.80;64.50
6824;DHT22;58633;49.470;11.004;2023-07-29T20:23:10;23.00;64.80
6824;DHT22;58633;49.470;11.004;2023-07-29T20:25:36;23.00;64.90
6824;DHT22;58633;49.470;11.004;2023-07-29T20:28:01;22.90;65.00
6824;DHT22;58633;49.470;11.004;2023-07-29T20:30:27;22.90;64.90
6824;DHT22;58633;49.470;11.004;2023-07-29T20:32:55;23.20;65.10
6824;DHT22;58633;49.470;11.004;2023-07-29T20:35:21;23.00;65.00
6824;DHT22;58633;49.470;11.004;2023-07-29T20:37:46;22.90;64.80
6824;DHT22;58633;49.470;11.004;2023-07-29T20:40:12;22.50;64.90
6824;DHT22;58633;49.470;11.004;2023-07-29T20:42:37;22.90;65.60
6824;DHT22;58633;49.470;11.004;2023-07-29T20:45:03;22.50;65.30
6824;DHT22;58633;49.470;11.004;2023-07-29T20:47:30;22.60;65.10
6824;DHT22;58633;49.470;11.004;2023-07-29T20:49:56;22.50;64.80
6824;DHT22;58633;49.470;11.004;2023-07-29T20:52:22;22.60;65.00
6824;DHT22;58633;49.470;11.004;2023-07-29T20:54:47;22.50;65.00
6824;DHT22;58633;49.470;11.004;2023-07-29T20:57:13;22.50;65.30